createdAt,value
2018-07-14T00:00:08.743Z,15.70
2018-07-14T00:02:36.544Z,15.60
2018-07-14T00:05:04.329Z,15.60
2018-07-14T00:07:32.147Z,15.60
2018-07-14T00:10:00.005Z,15.50
2018-07-14T00:12:27.741Z,15.40
2018-07-14T00:14:55.482Z,15.30
2018-07-14T00:17:23.127Z,15.20
2018-07-14T00:19:50.881Z,15.20
2018-07-14T00:22:18.704Z,15.20
2018-07-14T00:24:46.503Z,15.10
2018-07-14T00:27:14.207Z,15.10
2018-07-14T00:29:41.900Z,15.00
2018-07-14T00:32:09.597Z,14.90
2018-07-14T00:34:37.309Z,14.90
2018-07-14T00:37:05.021Z,14.80
2018-07-14T00:39:32.706Z,14.70
2018-07-14T00:42:00.373Z,14.60
2018-07-14T00:44:28.045Z,14.60
2018-07-14T00:46:55.809Z,14.50
2018-07-14T00:49:23.543Z,14.50
2018-07-14T00:51:51.612Z,14.40
2018-07-14T00:54:19.349Z,14.30
2018-07-14T00:56:47.544Z,14.30
2018-07-14T00:59:15.331Z,14.30
2018-07-14T01:01:43.218Z,14.30
2018-07-14T01:04:11.062Z,14.40
2018-07-14T01:06:38.739Z,14.40
2018-07-14T01:09:07.159Z,14.40
2018-07-14T01:11:34.849Z,14.40
2018-07-14T01:14:02.956Z,14.40
2018-07-14T01:18:58.497Z,14.50
2018-07-14T01:21:26.294Z,14.70
2018-07-14T01:23:54.135Z,14.70
2018-07-14T01:26:21.908Z,14.80
2018-07-14T01:28:50.013Z,14.90
2018-07-14T01:31:17.723Z,14.90
2018-07-14T01:33:46.159Z,14.60
2018-07-14T01:36:14.713Z,14.70
2018-07-14T01:38:42.858Z,14.80
2018-07-14T01:41:10.782Z,14.70
2018-07-14T01:43:38.886Z,14.70
2018-07-14T01:46:06.664Z,14.80
2018-07-14T01:48:34.428Z,14.90
2018-07-14T01:51:02.341Z,14.80
2018-07-14T01:53:30.133Z,14.80
2018-07-14T01:55:57.874Z,14.80
2018-07-14T01:58:25.579Z,14.60
2018-07-14T02:01:44.359Z,14.50
2018-07-14T02:04:12.060Z,14.60
2018-07-14T02:06:39.790Z,14.50
2018-07-14T02:09:07.515Z,14.60
2018-07-14T02:11:35.258Z,14.70
2018-07-14T02:14:02.975Z,14.60
2018-07-14T02:18:58.454Z,14.50
2018-07-14T02:21:26.153Z,14.50
2018-07-14T02:23:53.972Z,14.40
2018-07-14T02:26:21.685Z,14.40
2018-07-14T02:28:49.470Z,14.40
2018-07-14T02:33:45.193Z,14.50
2018-07-14T02:36:12.884Z,14.50
2018-07-14T02:38:40.629Z,14.60
2018-07-14T02:41:08.333Z,14.50
2018-07-14T02:43:36.093Z,14.60
2018-07-14T02:46:03.823Z,14.50
2018-07-14T02:48:31.506Z,14.60
2018-07-14T02:50:59.193Z,14.40
2018-07-14T02:53:26.863Z,14.40
2018-07-14T02:55:54.586Z,14.50
2018-07-14T02:58:22.328Z,14.60
2018-07-14T03:00:50.118Z,14.70
2018-07-14T03:03:17.800Z,14.70
2018-07-14T03:05:45.507Z,14.70
2018-07-14T03:08:13.160Z,14.60
2018-07-14T03:10:40.869Z,14.70
2018-07-14T03:13:08.564Z,14.80
2018-07-14T03:15:36.465Z,14.80
2018-07-14T03:18:04.372Z,14.80
2018-07-14T03:20:32.162Z,14.90
2018-07-14T03:22:59.896Z,14.80
2018-07-14T03:25:27.978Z,14.90
2018-07-14T03:27:56.336Z,14.90
2018-07-14T03:30:24.446Z,14.80
2018-07-14T03:32:52.789Z,14.90
2018-07-14T03:35:20.829Z,14.90
2018-07-14T03:37:48.824Z,14.90
2018-07-14T03:40:16.915Z,15.00
2018-07-14T03:42:45.010Z,15.00
2018-07-14T03:45:13.102Z,15.00
2018-07-14T03:47:41.052Z,15.00
2018-07-14T03:50:09.474Z,15.00
2018-07-14T03:52:37.571Z,15.00
2018-07-14T03:55:06.679Z,15.10
2018-07-14T03:57:37.077Z,15.00
2018-07-14T04:00:05.707Z,15.00
2018-07-14T04:02:34.105Z,15.00
2018-07-14T04:05:01.993Z,15.10
2018-07-14T04:07:29.905Z,15.10
2018-07-14T04:09:57.853Z,15.10
2018-07-14T04:12:25.704Z,15.10
2018-07-14T04:14:53.581Z,15.10
2018-07-14T04:17:21.794Z,15.10
2018-07-14T04:19:49.536Z,15.20
2018-07-14T04:22:17.186Z,15.20
2018-07-14T04:24:44.933Z,15.30
2018-07-14T04:27:12.619Z,15.20
2018-07-14T04:34:35.641Z,15.20
2018-07-14T04:37:03.271Z,15.20
2018-07-14T04:41:58.995Z,15.20
2018-07-14T04:44:26.734Z,15.20
2018-07-14T04:46:54.447Z,15.20
2018-07-14T04:49:22.101Z,15.20
2018-07-14T04:51:49.965Z,15.20
2018-07-14T04:54:17.904Z,15.20
2018-07-14T04:56:45.716Z,15.20
2018-07-14T04:59:13.430Z,15.30
2018-07-14T05:01:41.112Z,15.30
2018-07-14T05:04:08.833Z,15.30
2018-07-14T05:06:36.536Z,15.40
2018-07-14T05:09:05.247Z,15.50
2018-07-14T05:11:32.955Z,15.50
2018-07-14T05:14:00.651Z,15.60
2018-07-14T05:16:28.313Z,15.60
2018-07-14T05:18:55.979Z,15.60
2018-07-14T05:21:23.728Z,15.70
2018-07-14T05:23:51.646Z,15.70
2018-07-14T05:26:19.462Z,15.80
2018-07-14T05:28:47.523Z,15.80
2018-07-14T05:31:15.914Z,15.90
2018-07-14T05:33:43.658Z,16.00
2018-07-14T05:36:11.439Z,16.00
2018-07-14T05:38:39.385Z,16.10
2018-07-14T05:41:07.113Z,16.10
2018-07-14T05:43:35.245Z,16.20
2018-07-14T05:46:03.072Z,16.20
2018-07-14T05:48:30.774Z,16.10
2018-07-14T05:50:58.525Z,16.10
2018-07-14T05:53:26.278Z,16.20
2018-07-14T05:55:53.969Z,16.30
2018-07-14T05:58:21.939Z,16.40
2018-07-14T06:00:49.631Z,16.40
2018-07-14T06:03:17.342Z,16.50
2018-07-14T06:05:45.063Z,16.50
2018-07-14T06:08:13.066Z,16.60
2018-07-14T06:10:40.858Z,16.60
2018-07-14T06:13:08.530Z,16.70
2018-07-14T06:15:36.629Z,16.80
2018-07-14T06:18:04.521Z,16.80
2018-07-14T06:20:32.137Z,16.90
2018-07-14T06:23:00.066Z,17.00
2018-07-14T06:25:28.076Z,17.00
2018-07-14T06:27:55.993Z,17.00
2018-07-14T06:30:24.141Z,16.90
2018-07-14T06:32:53.366Z,17.00
2018-07-14T06:35:21.784Z,16.90
2018-07-14T06:37:50.230Z,17.00
2018-07-14T06:40:18.694Z,16.90
2018-07-14T06:42:47.193Z,16.90
2018-07-14T06:45:15.247Z,17.00
2018-07-14T06:47:45.977Z,17.00
2018-07-14T06:50:16.540Z,17.00
2018-07-14T06:52:44.736Z,17.10
2018-07-14T06:55:12.989Z,17.10
2018-07-14T06:57:41.830Z,17.10
2018-07-14T07:00:10.896Z,17.20
2018-07-14T07:02:39.330Z,17.10
2018-07-14T07:05:13.354Z,17.20
2018-07-14T07:07:41.269Z,17.20
2018-07-14T07:10:10.056Z,17.20
2018-07-14T07:15:39.823Z,17.30
2018-07-14T07:18:12.452Z,17.40
2018-07-14T07:20:40.689Z,17.40
2018-07-14T07:23:13.535Z,17.30
2018-07-14T07:25:56.972Z,17.30
2018-07-14T07:28:25.032Z,17.40
2018-07-14T07:30:53.317Z,17.40
2018-07-14T07:33:21.450Z,17.50
2018-07-14T07:35:49.306Z,17.60
2018-07-14T07:38:17.145Z,17.70
2018-07-14T07:40:46.791Z,17.60
2018-07-14T07:43:14.458Z,17.50
2018-07-14T07:48:33.802Z,17.70
2018-07-14T07:51:01.322Z,17.80
2018-07-14T07:53:29.558Z,17.90
2018-07-14T07:55:57.283Z,18.00
2018-07-14T07:58:25.026Z,17.90
2018-07-14T08:00:52.854Z,18.00
2018-07-14T08:03:20.689Z,18.00
2018-07-14T08:05:48.610Z,18.10
2018-07-14T08:08:16.686Z,18.20
2018-07-14T08:10:45.073Z,18.20
2018-07-14T08:13:12.720Z,17.60
2018-07-14T08:15:40.486Z,17.10
2018-07-14T08:18:08.099Z,16.90
2018-07-14T08:20:35.858Z,16.70
2018-07-14T08:23:03.549Z,17.20
2018-07-14T08:25:43.873Z,17.80
2018-07-14T08:28:23.897Z,18.00
2018-07-14T08:30:51.693Z,18.10
2018-07-14T08:33:19.606Z,18.30
2018-07-14T08:35:48.344Z,18.40
2018-07-14T08:38:16.116Z,18.40
2018-07-14T08:40:43.911Z,18.40
2018-07-14T08:43:12.274Z,18.50
2018-07-14T08:45:40.171Z,18.50
2018-07-14T08:48:07.971Z,18.60
2018-07-14T08:50:35.759Z,18.60
2018-07-14T08:53:03.417Z,18.60
2018-07-14T08:55:31.140Z,18.70
2018-07-14T08:57:58.864Z,18.80
2018-07-14T09:00:26.548Z,18.90
2018-07-14T09:02:54.339Z,19.00
2018-07-14T09:05:22.136Z,18.80
2018-07-14T09:07:50.306Z,19.00
2018-07-14T09:10:18.545Z,19.10
2018-07-14T09:12:46.287Z,19.20
2018-07-14T09:15:14.157Z,19.20
2018-07-14T09:17:41.869Z,19.30
2018-07-14T09:20:09.574Z,19.10
2018-07-14T09:22:37.320Z,19.00
2018-07-14T09:25:05.187Z,19.10
2018-07-14T09:27:33.112Z,19.20
2018-07-14T09:30:00.994Z,19.40
2018-07-14T09:32:28.778Z,19.70
2018-07-14T09:34:56.292Z,20.00
2018-07-14T09:37:23.984Z,20.00
2018-07-14T09:39:51.623Z,19.90
2018-07-14T09:42:19.599Z,19.90
2018-07-14T09:44:47.091Z,20.10
2018-07-14T09:47:14.702Z,20.10
2018-07-14T09:49:42.331Z,20.20
2018-07-14T09:52:10.123Z,20.20
2018-07-14T09:54:37.893Z,20.30
2018-07-14T09:57:05.640Z,20.50
2018-07-14T09:59:33.662Z,20.50
2018-07-14T10:02:01.597Z,20.50
2018-07-14T10:04:29.534Z,20.80
2018-07-14T10:06:57.443Z,21.00
2018-07-14T10:09:25.922Z,21.10
2018-07-14T10:11:54.365Z,21.20
2018-07-14T10:14:22.326Z,21.10
2018-07-14T10:16:50.265Z,21.00
2018-07-14T10:19:18.269Z,21.10
2018-07-14T10:21:46.630Z,21.10
2018-07-14T10:24:14.636Z,21.20
2018-07-14T10:26:42.774Z,21.20
2018-07-14T10:29:10.947Z,21.20
2018-07-14T10:31:39.177Z,21.30
2018-07-14T10:34:07.400Z,21.10
2018-07-14T10:36:35.357Z,21.00
2018-07-14T10:39:04.183Z,21.10
2018-07-14T10:41:32.272Z,21.00
2018-07-14T10:44:00.306Z,21.00
2018-07-14T10:46:28.222Z,21.10
2018-07-14T10:48:56.570Z,21.10
2018-07-14T10:51:24.769Z,21.10
2018-07-14T10:53:52.640Z,21.10
2018-07-14T10:56:20.778Z,21.20
2018-07-14T10:58:48.733Z,21.30
2018-07-14T11:01:16.865Z,21.30
2018-07-14T11:03:45.290Z,21.30
2018-07-14T11:06:14.138Z,21.20
2018-07-14T11:08:42.280Z,21.00
2018-07-14T11:11:10.150Z,21.10
2018-07-14T11:13:38.226Z,21.20
2018-07-14T11:24:44.661Z,21.50
2018-07-14T11:27:12.802Z,21.40
2018-07-14T11:29:40.638Z,21.50
2018-07-14T11:32:08.424Z,21.60
2018-07-14T11:34:36.218Z,21.60
2018-07-14T11:37:04.254Z,21.50
2018-07-14T11:39:32.501Z,21.60
2018-07-14T11:42:00.396Z,21.60
2018-07-14T11:44:28.089Z,21.40
2018-07-14T11:46:56.026Z,21.40
2018-07-14T11:49:23.826Z,21.50
2018-07-14T11:51:51.950Z,21.70
2018-07-14T11:54:20.859Z,21.90
2018-07-14T11:56:48.921Z,22.20
2018-07-14T11:59:17.852Z,22.30
2018-07-14T12:01:45.818Z,22.40
2018-07-14T12:04:13.755Z,22.60
2018-07-14T12:06:41.815Z,22.80
2018-07-14T12:09:10.172Z,22.80
2018-07-14T12:11:38.222Z,22.60
2018-07-14T12:14:06.386Z,22.70
2018-07-14T12:16:34.847Z,22.60
2018-07-14T12:19:02.932Z,22.50
2018-07-14T12:21:30.952Z,22.40
2018-07-14T12:23:58.982Z,22.30
2018-07-14T12:26:26.922Z,22.50
2018-07-14T12:28:54.896Z,22.60
2018-07-14T12:31:23.749Z,22.60
2018-07-14T12:33:51.723Z,22.50
2018-07-14T12:36:19.689Z,22.50
2018-07-14T12:38:47.814Z,22.50
2018-07-14T12:41:15.856Z,22.50
2018-07-14T12:43:43.944Z,22.60
2018-07-14T12:46:12.102Z,22.60
2018-07-14T12:48:40.315Z,22.60
2018-07-14T12:51:09.085Z,22.70
2018-07-14T12:53:37.150Z,22.90
2018-07-14T12:56:05.216Z,22.80
2018-07-14T12:58:33.233Z,22.70
2018-07-14T13:01:01.184Z,22.60
2018-07-14T13:03:29.187Z,22.50
2018-07-14T13:05:57.316Z,22.50
2018-07-14T13:08:25.473Z,22.40
2018-07-14T13:10:53.346Z,22.40
2018-07-14T13:13:21.287Z,22.30
2018-07-14T13:15:49.222Z,22.40
2018-07-14T13:18:17.160Z,22.30
2018-07-14T13:20:45.193Z,22.30
2018-07-14T13:23:13.237Z,22.30
2018-07-14T13:25:41.860Z,22.30
2018-07-14T13:28:09.833Z,22.30
2018-07-14T13:30:37.754Z,22.30
2018-07-14T13:33:05.794Z,22.30
2018-07-14T13:35:33.733Z,22.30
2018-07-14T13:38:01.944Z,22.30
2018-07-14T13:40:30.102Z,22.30
2018-07-14T13:42:58.025Z,22.30
2018-07-14T13:45:26.249Z,22.20
2018-07-14T13:47:54.533Z,22.20
2018-07-14T13:50:22.565Z,22.10
2018-07-14T13:52:50.588Z,22.10
2018-07-14T13:55:18.493Z,22.00
2018-07-14T13:57:46.896Z,22.10
2018-07-14T14:00:14.971Z,22.00
2018-07-14T14:02:42.940Z,22.10
2018-07-14T14:05:10.936Z,22.40
2018-07-14T14:07:39.052Z,22.30
2018-07-14T14:10:07.429Z,22.40
2018-07-14T14:12:35.666Z,22.40
2018-07-14T14:15:03.611Z,22.50
2018-07-14T14:17:31.749Z,22.60
2018-07-14T14:20:00.214Z,22.80
2018-07-14T14:22:28.139Z,22.80
2018-07-14T14:24:56.184Z,22.60
2018-07-14T14:27:24.093Z,22.30
2018-07-14T14:29:51.962Z,22.10
2018-07-14T14:32:20.018Z,22.20
2018-07-14T14:34:47.987Z,22.20
2018-07-14T14:37:16.563Z,22.10
2018-07-14T14:39:44.430Z,22.00
2018-07-14T14:42:12.359Z,22.10
2018-07-14T14:44:40.291Z,22.00
2018-07-14T14:47:08.364Z,22.00
2018-07-14T14:49:36.304Z,22.20
2018-07-14T14:52:04.237Z,22.50
2018-07-14T14:54:32.473Z,22.60
2018-07-14T14:57:00.479Z,22.50
2018-07-14T14:59:28.455Z,22.30
2018-07-14T15:01:59.845Z,22.40
2018-07-14T15:04:27.767Z,22.30
2018-07-14T15:06:55.635Z,22.10
2018-07-14T15:09:23.633Z,22.10
2018-07-14T15:11:51.640Z,22.20
2018-07-14T15:14:19.718Z,22.20
2018-07-14T15:16:47.769Z,22.50
2018-07-14T15:19:15.656Z,22.50
2018-07-14T15:21:43.529Z,22.30
2018-07-14T15:24:11.457Z,22.20
2018-07-14T15:26:39.575Z,22.20
2018-07-14T15:29:07.622Z,22.10
2018-07-14T15:31:35.616Z,22.20
2018-07-14T15:34:03.620Z,22.20
2018-07-14T15:36:31.592Z,22.30
2018-07-14T15:38:59.540Z,22.40
2018-07-14T15:41:27.574Z,22.20
2018-07-14T15:43:55.516Z,22.00
2018-07-14T15:46:23.962Z,22.00
2018-07-14T15:48:51.892Z,21.80
2018-07-14T15:51:19.917Z,21.70
2018-07-14T15:53:47.871Z,21.70
2018-07-14T15:56:15.903Z,21.60
2018-07-14T15:58:44.059Z,21.70
2018-07-14T16:01:12.443Z,21.60
2018-07-14T16:03:40.368Z,21.70
2018-07-14T16:06:08.337Z,21.70
2018-07-14T16:08:36.353Z,21.80
2018-07-14T16:11:04.318Z,21.90
2018-07-14T16:13:32.400Z,22.00
2018-07-14T16:16:00.339Z,22.10
2018-07-14T16:18:28.216Z,22.00
2018-07-14T16:20:56.232Z,22.00
2018-07-14T16:23:24.155Z,22.10
2018-07-14T16:25:52.108Z,22.00
2018-07-14T16:28:20.072Z,22.00
2018-07-14T16:30:50.776Z,21.80
2018-07-14T16:33:18.584Z,21.80
2018-07-14T16:35:46.719Z,21.90
2018-07-14T16:38:14.828Z,21.80
2018-07-14T16:40:42.767Z,21.80
2018-07-14T16:43:10.768Z,21.70
2018-07-14T16:45:38.717Z,21.70
2018-07-14T16:48:06.687Z,21.70
2018-07-14T16:50:34.778Z,21.40
2018-07-14T16:53:02.616Z,21.40
2018-07-14T16:55:30.505Z,21.40
2018-07-14T16:57:58.373Z,21.40
2018-07-14T17:00:26.222Z,21.40
2018-07-14T17:02:54.084Z,21.30
2018-07-14T17:05:22.267Z,21.20
2018-07-14T17:07:50.268Z,21.20
2018-07-14T17:10:18.175Z,21.20
2018-07-14T17:12:46.000Z,21.30
2018-07-14T17:15:13.868Z,21.30
2018-07-14T17:17:41.643Z,21.30
2018-07-14T17:20:09.465Z,21.30
2018-07-14T17:22:37.308Z,21.40
2018-07-14T17:25:05.256Z,21.40
2018-07-14T17:27:34.314Z,21.30
2018-07-14T17:30:02.188Z,21.40
2018-07-14T17:32:30.015Z,21.40
2018-07-14T17:34:57.860Z,21.20
2018-07-14T17:37:25.917Z,21.10
2018-07-14T17:39:53.836Z,21.10
2018-07-14T17:42:22.482Z,21.10
2018-07-14T17:44:50.336Z,21.10
2018-07-14T17:47:18.174Z,21.10
2018-07-14T17:49:46.010Z,21.00
2018-07-14T17:52:14.083Z,20.90
2018-07-14T17:54:42.018Z,20.80
2018-07-14T17:57:09.751Z,20.90
2018-07-14T17:59:38.319Z,20.90
2018-07-14T18:02:06.249Z,20.90
2018-07-14T18:04:34.170Z,21.00
2018-07-14T18:07:03.151Z,20.90
2018-07-14T18:09:31.171Z,20.80
2018-07-14T18:11:59.338Z,20.60
2018-07-14T18:14:27.148Z,20.60
2018-07-14T18:16:55.030Z,20.50
2018-07-14T18:19:23.532Z,20.50
2018-07-14T18:21:51.613Z,20.30
2018-07-14T18:24:19.457Z,20.30
2018-07-14T18:26:47.259Z,20.20
2018-07-14T18:29:15.273Z,20.20
2018-07-14T18:31:43.288Z,20.20
2018-07-14T18:34:11.630Z,20.10
2018-07-14T18:36:39.569Z,20.10
2018-07-14T18:39:08.192Z,20.10
2018-07-14T18:41:36.388Z,20.00
2018-07-14T18:44:04.373Z,19.90
2018-07-14T18:46:32.319Z,20.00
2018-07-14T18:49:00.237Z,19.90
2018-07-14T18:51:28.689Z,19.90
2018-07-14T18:53:56.692Z,19.80
2018-07-14T18:56:24.553Z,19.60
2018-07-14T18:58:52.902Z,19.50
2018-07-14T19:01:20.885Z,19.60
2018-07-14T19:03:48.720Z,19.50
2018-07-14T19:06:16.725Z,19.50
2018-07-14T19:08:44.796Z,19.50
2018-07-14T19:11:12.702Z,19.40
2018-07-14T19:13:40.595Z,19.30
2018-07-14T19:16:08.512Z,19.20
2018-07-14T19:18:36.316Z,19.10
2018-07-14T19:21:04.385Z,19.00
2018-07-14T19:23:32.510Z,18.90
2018-07-14T19:26:00.459Z,18.80
2018-07-14T19:28:28.228Z,18.70
2018-07-14T19:30:56.130Z,18.70
2018-07-14T19:33:23.968Z,18.60
2018-07-14T19:35:51.849Z,18.60
2018-07-14T19:38:19.699Z,18.50
2018-07-14T19:40:47.607Z,18.40
2018-07-14T19:43:15.458Z,18.40
2018-07-14T19:45:43.385Z,18.40
2018-07-14T19:48:11.282Z,18.20
2018-07-14T19:50:39.161Z,18.20
2018-07-14T19:53:07.093Z,18.10
2018-07-14T19:55:35.667Z,18.10
2018-07-14T19:58:02.985Z,18.10
2018-07-14T20:00:31.130Z,18.00
2018-07-14T20:02:59.157Z,17.90
2018-07-14T20:05:27.565Z,17.80
2018-07-14T20:07:55.504Z,17.70
2018-07-14T20:10:23.451Z,17.60
2018-07-14T20:12:51.303Z,17.60
2018-07-14T20:15:19.180Z,17.50
2018-07-14T20:17:47.130Z,17.50
2018-07-14T20:20:14.932Z,17.50
2018-07-14T20:22:42.778Z,17.40
2018-07-14T20:25:11.140Z,17.40
2018-07-14T20:27:39.069Z,17.30
2018-07-14T20:30:07.232Z,17.30
2018-07-14T20:32:35.043Z,17.30
2018-07-14T20:35:03.064Z,17.20
2018-07-14T20:37:30.959Z,17.10
2018-07-14T20:39:58.811Z,17.00
2018-07-14T20:42:27.112Z,17.00
2018-07-14T20:44:55.003Z,16.90
2018-07-14T20:47:23.140Z,16.80
2018-07-14T20:49:51.355Z,16.60
2018-07-14T20:52:19.309Z,16.50
2018-07-14T20:54:47.387Z,16.40
2018-07-14T20:57:15.273Z,16.30
2018-07-14T20:59:43.215Z,16.30
2018-07-14T21:02:11.114Z,16.30
2018-07-14T21:04:39.211Z,16.20
2018-07-14T21:07:07.546Z,16.30
2018-07-14T21:09:35.440Z,16.20
2018-07-14T21:12:03.442Z,16.10
2018-07-14T21:14:31.517Z,16.10
2018-07-14T21:16:59.424Z,16.00
2018-07-14T21:19:27.339Z,15.80
2018-07-14T21:24:23.292Z,15.80
2018-07-14T21:26:51.286Z,15.70
2018-07-14T21:29:19.190Z,15.80
2018-07-14T21:31:47.101Z,15.70
2018-07-14T21:34:15.237Z,15.70
2018-07-14T21:36:43.373Z,15.70
2018-07-14T21:39:11.278Z,15.50
2018-07-14T21:41:39.282Z,15.50
2018-07-14T21:44:07.090Z,15.50
2018-07-14T21:46:34.958Z,15.40
2018-07-14T21:49:02.841Z,15.40
2018-07-14T21:51:30.865Z,15.30
2018-07-14T21:53:59.209Z,15.20
2018-07-14T21:56:27.147Z,15.20
2018-07-14T21:58:55.757Z,15.20
2018-07-14T22:01:29.260Z,15.20
